Accueil
METAR-TAF:

METAR-TAF

Aéroports :

Trent Lott International Airport

Pascagoula, Mississippi, États-Unis

latitude: 30-27-49N, longitude: 088-31-55W, altitude: 5 m

Observation

Le bulletin a été fait il y a 45 minutes, à 15:10 UTC
Vent 5 kt de est
Température 28°C
Humidité 79%
Pression 1015 hPa
Visibilité: 16.1 km
Quelques nuages à une hauteur de 2500 ft
Nuages épars à une hauteur de 4500 ft
Nuages fragmentés à une hauteur de 9000 ft
orage à proximité

METAR: KPQL 161510Z 09005KT 10SM VCTS FEW025 SCT045 BKN090 28/24 A2998 RMK AO2 LTG DSNT E AND W RAE09 TSE04 P0000 T02780244

Heure: 10:55 (15:55 UTC)


TAF: absent

Observations et prévisions météorologiques de plus de 4000 aéroports (messages METAR et TAF).

Les stations disponibles sont représentées par des disques jaunes et rouges sur la carte.

Passer la souris dessus pour voir le nom de la station.

Cliquer dessus pour voir les observations et prévisions météorologiques.

Pour changer de carte: cliquez sur les boutons verts avec une croix noire pour zoomer, sur le bouton vert avec un tiret pour effectuer un zoom arrière, ou sur les flèches vertes pour les cartes adjacentes.


METAR-TAF: